sensor_id;sensor_type;location;lat;lon;timestamp;P1;durP1;ratioP1;P2;durP2;ratioP2
15480;SDS011;7842;50.904;6.670;2023-03-21T00:01:10;8.95;;;5.32;;
15480;SDS011;7842;50.904;6.670;2023-03-21T00:03:36;9.48;;;6.30;;
15480;SDS011;7842;50.904;6.670;2023-03-21T00:06:05;9.32;;;5.57;;
15480;SDS011;7842;50.904;6.670;2023-03-21T00:08:32;8.43;;;5.90;;
15480;SDS011;7842;50.904;6.670;2023-03-21T00:11:01;9.68;;;6.28;;
15480;SDS011;7842;50.904;6.670;2023-03-21T00:13:28;9.23;;;5.88;;
15480;SDS011;7842;50.904;6.670;2023-03-21T00:16:08;9.40;;;6.45;;
15480;SDS011;7842;50.904;6.670;2023-03-21T00:18:35;10.70;;;6.20;;
15480;SDS011;7842;50.904;6.670;2023-03-21T00:21:05;9.48;;;5.97;;
15480;SDS011;7842;50.904;6.670;2023-03-21T00:23:32;9.15;;;6.22;;
15480;SDS011;7842;50.904;6.670;2023-03-21T00:25:59;9.20;;;6.30;;
15480;SDS011;7842;50.904;6.670;2023-03-21T00:28:25;10.05;;;6.35;;
15480;SDS011;7842;50.904;6.670;2023-03-21T00:30:56;10.40;;;6.97;;
15480;SDS011;7842;50.904;6.670;2023-03-21T00:33:22;10.38;;;6.47;;
15480;SDS011;7842;50.904;6.670;2023-03-21T00:35:49;9.63;;;6.35;;
15480;SDS011;7842;50.904;6.670;2023-03-21T00:38:16;10.45;;;6.85;;
15480;SDS011;7842;50.904;6.670;2023-03-21T00:40:42;9.52;;;6.32;;
15480;SDS011;7842;50.904;6.670;2023-03-21T00:43:08;10.35;;;6.75;;
15480;SDS011;7842;50.904;6.670;2023-03-21T00:45:37;11.75;;;7.15;;
15480;SDS011;7842;50.904;6.670;2023-03-21T00:48:03;10.93;;;7.13;;
15480;SDS011;7842;50.904;6.670;2023-03-21T00:50:30;11.23;;;7.13;;
15480;SDS011;7842;50.904;6.670;2023-03-21T00:52:56;10.07;;;6.90;;
15480;SDS011;7842;50.904;6.670;2023-03-21T00:55:22;11.25;;;6.57;;
15480;SDS011;7842;50.904;6.670;2023-03-21T00:57:48;9.95;;;6.53;;
15480;SDS011;7842;50.904;6.670;2023-03-21T01:00:14;10.90;;;6.68;;
15480;SDS011;7842;50.904;6.670;2023-03-21T01:02:42;12.40;;;6.80;;
15480;SDS011;7842;50.904;6.670;2023-03-21T01:05:27;9.98;;;6.40;;
15480;SDS011;7842;50.904;6.670;2023-03-21T01:08:13;10.23;;;6.45;;
15480;SDS011;7842;50.904;6.670;2023-03-21T01:10:43;10.97;;;6.50;;
15480;SDS011;7842;50.904;6.670;2023-03-21T01:13:11;9.87;;;6.77;;
15480;SDS011;7842;50.904;6.670;2023-03-21T01:15:41;11.52;;;7.13;;
15480;SDS011;7842;50.904;6.670;2023-03-21T01:18:07;13.23;;;7.13;;
15480;SDS011;7842;50.904;6.670;2023-03-21T01:20:34;11.88;;;7.82;;
15480;SDS011;7842;50.904;6.670;2023-03-21T01:23:00;12.30;;;7.50;;
15480;SDS011;7842;50.904;6.670;2023-03-21T01:25:26;11.15;;;7.35;;
15480;SDS011;7842;50.904;6.670;2023-03-21T01:27:52;10.52;;;7.57;;
15480;SDS011;7842;50.904;6.670;2023-03-21T01:30:18;11.90;;;7.22;;
15480;SDS011;7842;50.904;6.670;2023-03-21T01:32:45;10.55;;;7.45;;
15480;SDS011;7842;50.904;6.670;2023-03-21T01:35:10;10.88;;;7.45;;
15480;SDS011;7842;50.904;6.670;2023-03-21T01:37:36;10.83;;;7.63;;
15480;SDS011;7842;50.904;6.670;2023-03-21T01:40:03;13.52;;;7.53;;
15480;SDS011;7842;50.904;6.670;2023-03-21T01:42:29;11.02;;;7.13;;
15480;SDS011;7842;50.904;6.670;2023-03-21T01:44:56;13.55;;;7.45;;
15480;SDS011;7842;50.904;6.670;2023-03-21T01:47:23;11.05;;;7.35;;
15480;SDS011;7842;50.904;6.670;2023-03-21T01:49:50;13.95;;;8.13;;
15480;SDS011;7842;50.904;6.670;2023-03-21T01:52:19;9.73;;;7.50;;
15480;SDS011;7842;50.904;6.670;2023-03-21T01:54:48;14.20;;;8.10;;
15480;SDS011;7842;50.904;6.670;2023-03-21T01:57:17;11.38;;;7.43;;
15480;SDS011;7842;50.904;6.670;2023-03-21T01:59:45;13.15;;;7.57;;
15480;SDS011;7842;50.904;6.670;2023-03-21T02:02:18;13.60;;;7.88;;
15480;SDS011;7842;50.904;6.670;2023-03-21T02:04:47;13.10;;;7.22;;
15480;SDS011;7842;50.904;6.670;2023-03-21T02:07:15;11.75;;;7.50;;
15480;SDS011;7842;50.904;6.670;2023-03-21T02:09:48;13.00;;;7.75;;
15480;SDS011;7842;50.904;6.670;2023-03-21T02:12:15;14.13;;;7.53;;
15480;SDS011;7842;50.904;6.670;2023-03-21T02:14:42;10.97;;;7.03;;
15480;SDS011;7842;50.904;6.670;2023-03-21T02:40:52;13.48;;;8.52;;
15480;SDS011;7842;50.904;6.670;2023-03-21T02:43:30;13.07;;;8.68;;
15480;SDS011;7842;50.904;6.670;2023-03-21T02:46:06;13.35;;;8.48;;
15480;SDS011;7842;50.904;6.670;2023-03-21T02:48:34;12.33;;;8.50;;
15480;SDS011;7842;50.904;6.670;2023-03-21T02:51:03;14.17;;;8.60;;
15480;SDS011;7842;50.904;6.670;2023-03-21T02:53:33;13.10;;;8.23;;
15480;SDS011;7842;50.904;6.670;2023-03-21T02:56:01;13.82;;;8.80;;
15480;SDS011;7842;50.904;6.670;2023-03-21T02:58:27;12.75;;;8.10;;
15480;SDS011;7842;50.904;6.670;2023-03-21T03:00:55;13.85;;;8.65;;
15480;SDS011;7842;50.904;6.670;2023-03-21T03:03:22;14.05;;;8.85;;
15480;SDS011;7842;50.904;6.670;2023-03-21T03:05:52;12.93;;;8.77;;
15480;SDS011;7842;50.904;6.670;2023-03-21T03:08:36;15.38;;;8.68;;
15480;SDS011;7842;50.904;6.670;2023-03-21T03:19:17;12.93;;;8.85;;
15480;SDS011;7842;50.904;6.670;2023-03-21T03:21:52;13.80;;;8.93;;
15480;SDS011;7842;50.904;6.670;2023-03-21T03:24:31;15.13;;;9.05;;
15480;SDS011;7842;50.904;6.670;2023-03-21T03:27:01;13.75;;;8.68;;
15480;SDS011;7842;50.904;6.670;2023-03-21T03:29:29;14.88;;;9.48;;
15480;SDS011;7842;50.904;6.670;2023-03-21T03:32:02;14.90;;;8.80;;
15480;SDS011;7842;50.904;6.670;2023-03-21T03:34:31;13.02;;;8.63;;
15480;SDS011;7842;50.904;6.670;2023-03-21T03:36:58;13.80;;;8.27;;
15480;SDS011;7842;50.904;6.670;2023-03-21T03:39:36;13.57;;;8.30;;
15480;SDS011;7842;50.904;6.670;2023-03-21T03:42:06;12.35;;;8.52;;
15480;SDS011;7842;50.904;6.670;2023-03-21T03:44:33;12.20;;;7.97;;
15480;SDS011;7842;50.904;6.670;2023-03-21T03:47:01;16.13;;;8.68;;
15480;SDS011;7842;50.904;6.670;2023-03-21T03:49:30;12.40;;;8.23;;
15480;SDS011;7842;50.904;6.670;2023-03-21T03:52:41;15.73;;;8.03;;
15480;SDS011;7842;50.904;6.670;2023-03-21T03:54:48;15.27;;;8.02;;
15480;SDS011;7842;50.904;6.670;2023-03-21T03:57:16;14.40;;;8.02;;
15480;SDS011;7842;50.904;6.670;2023-03-21T03:59:43;12.20;;;8.15;;
15480;SDS011;7842;50.904;6.670;2023-03-21T04:02:09;14.25;;;8.20;;
15480;SDS011;7842;50.904;6.670;2023-03-21T04:04:36;14.70;;;8.38;;
15480;SDS011;7842;50.904;6.670;2023-03-21T04:07:02;12.18;;;8.20;;
15480;SDS011;7842;50.904;6.670;2023-03-21T04:09:28;12.38;;;7.78;;
15480;SDS011;7842;50.904;6.670;2023-03-21T04:12:05;14.37;;;8.47;;
15480;SDS011;7842;50.904;6.670;2023-03-21T04:14:31;15.55;;;8.45;;
15480;SDS011;7842;50.904;6.670;2023-03-21T04:16:57;15.15;;;8.75;;
15480;SDS011;7842;50.904;6.670;2023-03-21T04:19:23;13.00;;;8.03;;
15480;SDS011;7842;50.904;6.670;2023-03-21T04:21:50;14.57;;;8.63;;
15480;SDS011;7842;50.904;6.670;2023-03-21T04:24:17;14.45;;;8.10;;
15480;SDS011;7842;50.904;6.670;2023-03-21T04:26:43;12.82;;;7.75;;
15480;SDS011;7842;50.904;6.670;2023-03-21T04:29:09;12.17;;;7.67;;
15480;SDS011;7842;50.904;6.670;2023-03-21T04:31:35;13.55;;;8.07;;
15480;SDS011;7842;50.904;6.670;2023-03-21T04:34:02;11.15;;;7.43;;
15480;SDS011;7842;50.904;6.670;2023-03-21T04:36:29;12.38;;;8.10;;
15480;SDS011;7842;50.904;6.670;2023-03-21T04:39:02;15.20;;;8.15;;
15480;SDS011;7842;50.904;6.670;2023-03-21T04:41:30;12.32;;;7.60;;
15480;SDS011;7842;50.904;6.670;2023-03-21T04:43:56;12.90;;;7.78;;
15480;SDS011;7842;50.904;6.670;2023-03-21T04:46:22;14.93;;;8.13;;
15480;SDS011;7842;50.904;6.670;2023-03-21T04:48:48;14.60;;;8.23;;
15480;SDS011;7842;50.904;6.670;2023-03-21T04:51:14;12.50;;;7.30;;
15480;SDS011;7842;50.904;6.670;2023-03-21T04:53:41;13.73;;;7.57;;
15480;SDS011;7842;50.904;6.670;2023-03-21T04:56:10;13.38;;;7.57;;
15480;SDS011;7842;50.904;6.670;2023-03-21T04:58:36;12.13;;;7.63;;
15480;SDS011;7842;50.904;6.670;2023-03-21T05:01:05;13.82;;;7.32;;
15480;SDS011;7842;50.904;6.670;2023-03-21T05:03:31;13.63;;;7.53;;
15480;SDS011;7842;50.904;6.670;2023-03-21T05:05:59;13.00;;;7.30;;
15480;SDS011;7842;50.904;6.670;2023-03-21T05:08:25;12.95;;;7.13;;
15480;SDS011;7842;50.904;6.670;2023-03-21T05:10:51;12.85;;;7.00;;
15480;SDS011;7842;50.904;6.670;2023-03-21T05:13:17;11.75;;;7.00;;
15480;SDS011;7842;50.904;6.670;2023-03-21T05:15:43;14.30;;;7.10;;
15480;SDS011;7842;50.904;6.670;2023-03-21T05:18:10;14.88;;;7.03;;
15480;SDS011;7842;50.904;6.670;2023-03-21T05:20:37;13.40;;;7.13;;
15480;SDS011;7842;50.904;6.670;2023-03-21T05:23:06;11.43;;;6.60;;
15480;SDS011;7842;50.904;6.670;2023-03-21T05:25:34;12.70;;;7.13;;
15480;SDS011;7842;50.904;6.670;2023-03-21T05:28:02;15.60;;;7.22;;
15480;SDS011;7842;50.904;6.670;2023-03-21T05:30:28;12.43;;;7.30;;
15480;SDS011;7842;50.904;6.670;2023-03-21T05:32:54;11.88;;;7.40;;
15480;SDS011;7842;50.904;6.670;2023-03-21T05:35:21;13.25;;;7.32;;
15480;SDS011;7842;50.904;6.670;2023-03-21T05:37:50;11.50;;;7.30;;
15480;SDS011;7842;50.904;6.670;2023-03-21T05:40:16;12.02;;;7.35;;
15480;SDS011;7842;50.904;6.670;2023-03-21T05:42:42;13.55;;;7.72;;
15480;SDS011;7842;50.904;6.670;2023-03-21T05:45:08;14.02;;;7.88;;
15480;SDS011;7842;50.904;6.670;2023-03-21T05:47:34;11.80;;;7.97;;
15480;SDS011;7842;50.904;6.670;2023-03-21T05:50:00;13.00;;;7.28;;
15480;SDS011;7842;50.904;6.670;2023-03-21T05:52:26;13.40;;;7.68;;
15480;SDS011;7842;50.904;6.670;2023-03-21T05:54:53;11.87;;;7.43;;
15480;SDS011;7842;50.904;6.670;2023-03-21T05:57:19;12.70;;;7.50;;
15480;SDS011;7842;50.904;6.670;2023-03-21T05:59:46;13.00;;;7.35;;
15480;SDS011;7842;50.904;6.670;2023-03-21T06:02:14;11.00;;;7.38;;
15480;SDS011;7842;50.904;6.670;2023-03-21T06:04:40;11.63;;;7.35;;
15480;SDS011;7842;50.904;6.670;2023-03-21T06:07:06;11.83;;;7.03;;
15480;SDS011;7842;50.904;6.670;2023-03-21T06:09:32;13.57;;;7.97;;
15480;SDS011;7842;50.904;6.670;2023-03-21T06:11:58;14.77;;;7.88;;
15480;SDS011;7842;50.904;6.670;2023-03-21T06:14:25;14.68;;;8.20;;
15480;SDS011;7842;50.904;6.670;2023-03-21T06:16:51;12.80;;;8.10;;
15480;SDS011;7842;50.904;6.670;2023-03-21T06:19:20;12.70;;;8.02;;
15480;SDS011;7842;50.904;6.670;2023-03-21T06:21:47;12.67;;;7.97;;
15480;SDS011;7842;50.904;6.670;2023-03-21T06:24:13;12.25;;;8.20;;
15480;SDS011;7842;50.904;6.670;2023-03-21T06:26:42;14.57;;;7.85;;
15480;SDS011;7842;50.904;6.670;2023-03-21T06:29:08;12.88;;;8.10;;
15480;SDS011;7842;50.904;6.670;2023-03-21T06:31:34;13.57;;;7.82;;
15480;SDS011;7842;50.904;6.670;2023-03-21T06:34:00;14.27;;;8.65;;
15480;SDS011;7842;50.904;6.670;2023-03-21T06:36:26;15.45;;;9.15;;
15480;SDS011;7842;50.904;6.670;2023-03-21T06:38:52;15.60;;;9.40;;
15480;SDS011;7842;50.904;6.670;2023-03-21T06:41:18;13.02;;;8.15;;
15480;SDS011;7842;50.904;6.670;2023-03-21T06:43:44;13.07;;;8.00;;
15480;SDS011;7842;50.904;6.670;2023-03-21T06:46:12;11.75;;;8.10;;
15480;SDS011;7842;50.904;6.670;2023-03-21T06:48:38;13.93;;;8.05;;
15480;SDS011;7842;50.904;6.670;2023-03-21T06:51:12;14.50;;;9.32;;
15480;SDS011;7842;50.904;6.670;2023-03-21T06:53:38;17.00;;;9.00;;
15480;SDS011;7842;50.904;6.670;2023-03-21T06:56:05;15.82;;;9.70;;
15480;SDS011;7842;50.904;6.670;2023-03-21T06:58:31;14.43;;;9.23;;
15480;SDS011;7842;50.904;6.670;2023-03-21T07:00:58;14.35;;;9.68;;
15480;SDS011;7842;50.904;6.670;2023-03-21T07:03:24;19.75;;;10.85;;
15480;SDS011;7842;50.904;6.670;2023-03-21T07:05:50;18.13;;;10.40;;
15480;SDS011;7842;50.904;6.670;2023-03-21T07:08:16;16.08;;;9.88;;
15480;SDS011;7842;50.904;6.670;2023-03-21T07:10:43;17.00;;;10.38;;
15480;SDS011;7842;50.904;6.670;2023-03-21T07:13:10;14.45;;;9.55;;
15480;SDS011;7842;50.904;6.670;2023-03-21T07:15:36;15.37;;;9.20;;
15480;SDS011;7842;50.904;6.670;2023-03-21T07:18:03;16.58;;;11.02;;
15480;SDS011;7842;50.904;6.670;2023-03-21T07:20:29;19.83;;;12.75;;
15480;SDS011;7842;50.904;6.670;2023-03-21T07:22:55;18.90;;;11.70;;
15480;SDS011;7842;50.904;6.670;2023-03-21T07:25:21;20.08;;;11.85;;
15480;SDS011;7842;50.904;6.670;2023-03-21T07:27:50;19.48;;;11.57;;
15480;SDS011;7842;50.904;6.670;2023-03-21T07:30:16;23.55;;;14.77;;
15480;SDS011;7842;50.904;6.670;2023-03-21T07:32:43;24.55;;;14.48;;
15480;SDS011;7842;50.904;6.670;2023-03-21T07:35:10;56.63;;;34.10;;
15480;SDS011;7842;50.904;6.670;2023-03-21T07:37:36;20.80;;;13.00;;
15480;SDS011;7842;50.904;6.670;2023-03-21T07:40:02;16.90;;;10.52;;
15480;SDS011;7842;50.904;6.670;2023-03-21T07:42:35;17.73;;;10.98;;
15480;SDS011;7842;50.904;6.670;2023-03-21T07:45:01;18.13;;;11.40;;
15480;SDS011;7842;50.904;6.670;2023-03-21T07:47:29;16.80;;;11.15;;
15480;SDS011;7842;50.904;6.670;2023-03-21T07:49:55;18.88;;;11.32;;
15480;SDS011;7842;50.904;6.670;2023-03-21T07:52:21;17.80;;;11.75;;
15480;SDS011;7842;50.904;6.670;2023-03-21T07:54:47;14.95;;;10.98;;
15480;SDS011;7842;50.904;6.670;2023-03-21T07:57:13;18.52;;;12.30;;
15480;SDS011;7842;50.904;6.670;2023-03-21T07:59:39;26.65;;;15.52;;
15480;SDS011;7842;50.904;6.670;2023-03-21T08:02:05;39.67;;;25.13;;
15480;SDS011;7842;50.904;6.670;2023-03-21T08:04:32;33.03;;;20.85;;
15480;SDS011;7842;50.904;6.670;2023-03-21T08:06:58;19.42;;;11.90;;
15480;SDS011;7842;50.904;6.670;2023-03-21T08:09:25;18.92;;;11.23;;
15480;SDS011;7842;50.904;6.670;2023-03-21T08:11:51;17.15;;;10.60;;
15480;SDS011;7842;50.904;6.670;2023-03-21T08:14:17;19.73;;;10.30;;
15480;SDS011;7842;50.904;6.670;2023-03-21T08:16:43;15.27;;;10.60;;
15480;SDS011;7842;50.904;6.670;2023-03-21T08:19:09;17.45;;;10.13;;
15480;SDS011;7842;50.904;6.670;2023-03-21T08:21:35;15.80;;;10.07;;
15480;SDS011;7842;50.904;6.670;2023-03-21T08:24:03;16.63;;;9.77;;
15480;SDS011;7842;50.904;6.670;2023-03-21T08:26:29;13.17;;;9.93;;
15480;SDS011;7842;50.904;6.670;2023-03-21T08:28:56;14.67;;;9.80;;
15480;SDS011;7842;50.904;6.670;2023-03-21T08:31:22;16.40;;;9.80;;
15480;SDS011;7842;50.904;6.670;2023-03-21T08:33:48;16.55;;;10.32;;
15480;SDS011;7842;50.904;6.670;2023-03-21T08:36:19;17.98;;;9.98;;
15480;SDS011;7842;50.904;6.670;2023-03-21T08:38:45;18.20;;;10.38;;
15480;SDS011;7842;50.904;6.670;2023-03-21T08:41:12;16.73;;;9.93;;
15480;SDS011;7842;50.904;6.670;2023-03-21T08:43:38;15.60;;;10.02;;
15480;SDS011;7842;50.904;6.670;2023-03-21T08:46:05;14.93;;;9.45;;
15480;SDS011;7842;50.904;6.670;2023-03-21T08:48:31;14.88;;;9.48;;
15480;SDS011;7842;50.904;6.670;2023-03-21T08:51:00;16.30;;;9.90;;
15480;SDS011;7842;50.904;6.670;2023-03-21T08:53:26;16.88;;;10.60;;
15480;SDS011;7842;50.904;6.670;2023-03-21T08:55:52;19.02;;;9.98;;
15480;SDS011;7842;50.904;6.670;2023-03-21T08:58:18;14.88;;;9.23;;
15480;SDS011;7842;50.904;6.670;2023-03-21T09:00:44;16.10;;;9.73;;
15480;SDS011;7842;50.904;6.670;2023-03-21T09:03:11;15.57;;;9.98;;
15480;SDS011;7842;50.904;6.670;2023-03-21T09:05:37;14.27;;;9.52;;
15480;SDS011;7842;50.904;6.670;2023-03-21T09:08:03;16.77;;;10.30;;
15480;SDS011;7842;50.904;6.670;2023-03-21T09:10:29;14.82;;;9.63;;
15480;SDS011;7842;50.904;6.670;2023-03-21T09:12:56;16.07;;;9.77;;
15480;SDS011;7842;50.904;6.670;2023-03-21T09:15:22;17.05;;;9.88;;
15480;SDS011;7842;50.904;6.670;2023-03-21T09:17:49;15.70;;;9.80;;
15480;SDS011;7842;50.904;6.670;2023-03-21T09:20:18;16.15;;;10.13;;
15480;SDS011;7842;50.904;6.670;2023-03-21T09:22:50;15.98;;;10.02;;
15480;SDS011;7842;50.904;6.670;2023-03-21T09:25:16;14.60;;;9.30;;
15480;SDS011;7842;50.904;6.670;2023-03-21T09:27:43;13.73;;;9.90;;
15480;SDS011;7842;50.904;6.670;2023-03-21T09:30:13;13.13;;;9.23;;
15480;SDS011;7842;50.904;6.670;2023-03-21T09:32:43;14.02;;;8.95;;
15480;SDS011;7842;50.904;6.670;2023-03-21T09:35:12;14.23;;;9.00;;
15480;SDS011;7842;50.904;6.670;2023-03-21T09:37:40;12.73;;;9.10;;
15480;SDS011;7842;50.904;6.670;2023-03-21T09:40:16;12.32;;;8.70;;
15480;SDS011;7842;50.904;6.670;2023-03-21T09:45:36;13.82;;;9.23;;
15480;SDS011;7842;50.904;6.670;2023-03-21T09:48:15;13.15;;;9.43;;
15480;SDS011;7842;50.904;6.670;2023-03-21T09:50:50;14.13;;;9.00;;
15480;SDS011;7842;50.904;6.670;2023-03-21T09:53:21;14.18;;;9.05;;
15480;SDS011;7842;50.904;6.670;2023-03-21T09:55:53;13.27;;;8.82;;
15480;SDS011;7842;50.904;6.670;2023-03-21T10:01:20;15.60;;;9.60;;
15480;SDS011;7842;50.904;6.670;2023-03-21T10:04:05;14.65;;;9.52;;
15480;SDS011;7842;50.904;6.670;2023-03-21T10:06:33;15.32;;;10.23;;
15480;SDS011;7842;50.904;6.670;2023-03-21T10:09:05;15.07;;;10.15;;
15480;SDS011;7842;50.904;6.670;2023-03-21T10:11:41;15.40;;;10.57;;
15480;SDS011;7842;50.904;6.670;2023-03-21T10:14:13;15.32;;;10.45;;
15480;SDS011;7842;50.904;6.670;2023-03-21T10:16:47;15.02;;;11.00;;
15480;SDS011;7842;50.904;6.670;2023-03-21T10:19:15;16.92;;;10.15;;
15480;SDS011;7842;50.904;6.670;2023-03-21T10:21:44;14.63;;;10.23;;
15480;SDS011;7842;50.904;6.670;2023-03-21T10:24:15;13.80;;;10.30;;
15480;SDS011;7842;50.904;6.670;2023-03-21T10:26:42;14.93;;;10.40;;
15480;SDS011;7842;50.904;6.670;2023-03-21T10:29:09;14.77;;;10.18;;
15480;SDS011;7842;50.904;6.670;2023-03-21T10:31:37;16.25;;;10.00;;
15480;SDS011;7842;50.904;6.670;2023-03-21T10:34:07;13.43;;;9.57;;
15480;SDS011;7842;50.904;6.670;2023-03-21T10:36:36;14.13;;;9.88;;
15480;SDS011;7842;50.904;6.670;2023-03-21T10:39:19;13.38;;;9.60;;
15480;SDS011;7842;50.904;6.670;2023-03-21T10:41:46;15.40;;;10.02;;
15480;SDS011;7842;50.904;6.670;2023-03-21T10:44:13;16.15;;;10.75;;
15480;SDS011;7842;50.904;6.670;2023-03-21T10:46:53;14.65;;;9.88;;
15480;SDS011;7842;50.904;6.670;2023-03-21T10:49:19;13.30;;;9.38;;
15480;SDS011;7842;50.904;6.670;2023-03-21T10:51:45;12.87;;;9.23;;
15480;SDS011;7842;50.904;6.670;2023-03-21T10:54:13;19.05;;;11.20;;
15480;SDS011;7842;50.904;6.670;2023-03-21T10:57:14;14.63;;;9.20;;
15480;SDS011;7842;50.904;6.670;2023-03-21T10:59:42;13.55;;;10.20;;
15480;SDS011;7842;50.904;6.670;2023-03-21T11:02:16;14.77;;;8.98;;
15480;SDS011;7842;50.904;6.670;2023-03-21T11:04:42;13.98;;;9.15;;
15480;SDS011;7842;50.904;6.670;2023-03-21T11:07:11;12.65;;;9.20;;
15480;SDS011;7842;50.904;6.670;2023-03-21T11:09:46;15.13;;;9.13;;
15480;SDS011;7842;50.904;6.670;2023-03-21T11:12:14;11.07;;;8.48;;
15480;SDS011;7842;50.904;6.670;2023-03-21T11:14:44;12.00;;;8.38;;
15480;SDS011;7842;50.904;6.670;2023-03-21T11:19:50;13.38;;;8.30;;
15480;SDS011;7842;50.904;6.670;2023-03-21T11:22:20;12.02;;;8.32;;
15480;SDS011;7842;50.904;6.670;2023-03-21T11:24:51;12.88;;;8.10;;
15480;SDS011;7842;50.904;6.670;2023-03-21T11:27:17;12.05;;;8.52;;
15480;SDS011;7842;50.904;6.670;2023-03-21T11:29:47;11.90;;;8.13;;
15480;SDS011;7842;50.904;6.670;2023-03-21T11:34:51;12.77;;;9.77;;
15480;SDS011;7842;50.904;6.670;2023-03-21T11:39:45;11.00;;;8.65;;
15480;SDS011;7842;50.904;6.670;2023-03-21T11:42:24;15.63;;;11.00;;
15480;SDS011;7842;50.904;6.670;2023-03-21T11:44:56;14.13;;;9.38;;
15480;SDS011;7842;50.904;6.670;2023-03-21T11:47:22;12.32;;;9.55;;
15480;SDS011;7842;50.904;6.670;2023-03-21T11:49:48;11.65;;;8.77;;
15480;SDS011;7842;50.904;6.670;2023-03-21T11:52:26;10.73;;;7.50;;
15480;SDS011;7842;50.904;6.670;2023-03-21T11:57:31;11.63;;;7.87;;
15480;SDS011;7842;50.904;6.670;2023-03-21T12:00:13;10.38;;;7.25;;
15480;SDS011;7842;50.904;6.670;2023-03-21T12:05:31;11.57;;;7.70;;
15480;SDS011;7842;50.904;6.670;2023-03-21T12:10:26;10.43;;;7.97;;
15480;SDS011;7842;50.904;6.670;2023-03-21T12:13:08;11.07;;;8.23;;
15480;SDS011;7842;50.904;6.670;2023-03-21T12:15:49;13.65;;;9.48;;
15480;SDS011;7842;50.904;6.670;2023-03-21T12:18:28;11.82;;;7.85;;
15480;SDS011;7842;50.904;6.670;2023-03-21T12:41:32;11.23;;;8.23;;
15480;SDS011;7842;50.904;6.670;2023-03-21T12:44:02;11.10;;;7.57;;
15480;SDS011;7842;50.904;6.670;2023-03-21T12:51:25;9.80;;;7.40;;
15480;SDS011;7842;50.904;6.670;2023-03-21T12:56:26;11.13;;;7.20;;
15480;SDS011;7842;50.904;6.670;2023-03-21T12:58:56;8.68;;;6.63;;
15480;SDS011;7842;50.904;6.670;2023-03-21T13:01:23;9.82;;;6.55;;
15480;SDS011;7842;50.904;6.670;2023-03-21T13:06:21;9.57;;;7.20;;
15480;SDS011;7842;50.904;6.670;2023-03-21T13:08:57;8.65;;;6.63;;
15480;SDS011;7842;50.904;6.670;2023-03-21T13:11:26;8.73;;;6.80;;
15480;SDS011;7842;50.904;6.670;2023-03-21T13:14:06;8.82;;;6.85;;
15480;SDS011;7842;50.904;6.670;2023-03-21T13:16:35;9.88;;;6.15;;
15480;SDS011;7842;50.904;6.670;2023-03-21T13:26:46;9.30;;;6.00;;
15480;SDS011;7842;50.904;6.670;2023-03-21T13:29:23;7.65;;;5.53;;
15480;SDS011;7842;50.904;6.670;2023-03-21T13:31:50;6.95;;;5.55;;
15480;SDS011;7842;50.904;6.670;2023-03-21T13:34:19;9.95;;;5.65;;
15480;SDS011;7842;50.904;6.670;2023-03-21T13:36:47;7.88;;;5.80;;
15480;SDS011;7842;50.904;6.670;2023-03-21T13:39:23;7.57;;;5.30;;
15480;SDS011;7842;50.904;6.670;2023-03-21T13:41:50;6.85;;;5.68;;
15480;SDS011;7842;50.904;6.670;2023-03-21T13:46:53;6.50;;;5.43;;
15480;SDS011;7842;50.904;6.670;2023-03-21T13:49:27;8.05;;;5.43;;
15480;SDS011;7842;50.904;6.670;2023-03-21T13:51:56;9.15;;;5.35;;
15480;SDS011;7842;50.904;6.670;2023-03-21T13:56:59;6.30;;;4.97;;
15480;SDS011;7842;50.904;6.670;2023-03-21T13:59:39;7.72;;;4.97;;
15480;SDS011;7842;50.904;6.670;2023-03-21T14:04:37;7.45;;;5.15;;
15480;SDS011;7842;50.904;6.670;2023-03-21T14:07:05;6.15;;;4.97;;
15480;SDS011;7842;50.904;6.670;2023-03-21T14:09:37;6.60;;;5.00;;
15480;SDS011;7842;50.904;6.670;2023-03-21T14:12:05;7.07;;;5.20;;
15480;SDS011;7842;50.904;6.670;2023-03-21T14:14:42;5.45;;;4.80;;
15480;SDS011;7842;50.904;6.670;2023-03-21T14:17:22;5.55;;;4.47;;
15480;SDS011;7842;50.904;6.670;2023-03-21T14:19:53;7.10;;;4.82;;
15480;SDS011;7842;50.904;6.670;2023-03-21T14:22:39;6.55;;;4.85;;
15480;SDS011;7842;50.904;6.670;2023-03-21T14:25:09;7.17;;;4.93;;
15480;SDS011;7842;50.904;6.670;2023-03-21T14:27:36;5.88;;;4.75;;
15480;SDS011;7842;50.904;6.670;2023-03-21T14:30:03;5.28;;;4.38;;
15480;SDS011;7842;50.904;6.670;2023-03-21T14:32:30;7.45;;;5.00;;
15480;SDS011;7842;50.904;6.670;2023-03-21T14:34:58;7.10;;;5.00;;
15480;SDS011;7842;50.904;6.670;2023-03-21T14:40:18;7.43;;;5.25;;
15480;SDS011;7842;50.904;6.670;2023-03-21T14:42:46;6.70;;;5.30;;
15480;SDS011;7842;50.904;6.670;2023-03-21T14:45:22;5.80;;;4.55;;
15480;SDS011;7842;50.904;6.670;2023-03-21T14:51:01;7.17;;;5.10;;
15480;SDS011;7842;50.904;6.670;2023-03-21T14:53:29;6.30;;;5.13;;
15480;SDS011;7842;50.904;6.670;2023-03-21T14:55:57;5.65;;;4.75;;
15480;SDS011;7842;50.904;6.670;2023-03-21T14:58:23;7.43;;;5.30;;
15480;SDS011;7842;50.904;6.670;2023-03-21T15:00:50;7.10;;;5.90;;
15480;SDS011;7842;50.904;6.670;2023-03-21T15:03:17;8.55;;;5.85;;
15480;SDS011;7842;50.904;6.670;2023-03-21T15:05:45;6.40;;;5.18;;
15480;SDS011;7842;50.904;6.670;2023-03-21T15:10:38;6.50;;;5.57;;
15480;SDS011;7842;50.904;6.670;2023-03-21T15:13:26;5.47;;;4.70;;
15480;SDS011;7842;50.904;6.670;2023-03-21T15:15:50;5.25;;;4.53;;
15480;SDS011;7842;50.904;6.670;2023-03-21T15:18:19;6.80;;;4.97;;
15480;SDS011;7842;50.904;6.670;2023-03-21T15:20:47;6.90;;;4.50;;
15480;SDS011;7842;50.904;6.670;2023-03-21T15:23:18;5.13;;;4.45;;
15480;SDS011;7842;50.904;6.670;2023-03-21T15:25:49;7.28;;;4.60;;
15480;SDS011;7842;50.904;6.670;2023-03-21T15:28:16;5.80;;;4.47;;
15480;SDS011;7842;50.904;6.670;2023-03-21T15:30:48;5.25;;;4.50;;
15480;SDS011;7842;50.904;6.670;2023-03-21T15:33:16;5.40;;;4.60;;
15480;SDS011;7842;50.904;6.670;2023-03-21T15:35:44;5.75;;;4.25;;
15480;SDS011;7842;50.904;6.670;2023-03-21T15:41:15;5.15;;;4.45;;
15480;SDS011;7842;50.904;6.670;2023-03-21T15:43:42;5.35;;;4.22;;
15480;SDS011;7842;50.904;6.670;2023-03-21T15:46:12;5.60;;;4.30;;
15480;SDS011;7842;50.904;6.670;2023-03-21T15:49:15;4.57;;;4.07;;
15480;SDS011;7842;50.904;6.670;2023-03-21T15:52:02;4.38;;;3.97;;
15480;SDS011;7842;50.904;6.670;2023-03-21T15:54:34;4.70;;;4.20;;
15480;SDS011;7842;50.904;6.670;2023-03-21T15:57:24;6.37;;;4.13;;
15480;SDS011;7842;50.904;6.670;2023-03-21T15:59:54;4.75;;;3.70;;
15480;SDS011;7842;50.904;6.670;2023-03-21T16:02:21;5.38;;;3.80;;
15480;SDS011;7842;50.904;6.670;2023-03-21T16:04:59;6.80;;;4.88;;
15480;SDS011;7842;50.904;6.670;2023-03-21T16:07:25;4.38;;;3.97;;
15480;SDS011;7842;50.904;6.670;2023-03-21T16:09:56;4.50;;;3.67;;
15480;SDS011;7842;50.904;6.670;2023-03-21T16:12:22;4.35;;;3.90;;
15480;SDS011;7842;50.904;6.670;2023-03-21T16:14:48;5.93;;;3.90;;
15480;SDS011;7842;50.904;6.670;2023-03-21T16:17:49;4.57;;;4.00;;
15480;SDS011;7842;50.904;6.670;2023-03-21T16:20:41;5.35;;;3.70;;
15480;SDS011;7842;50.904;6.670;2023-03-21T16:22:59;5.03;;;3.33;;
15480;SDS011;7842;50.904;6.670;2023-03-21T16:25:25;4.80;;;4.30;;
15480;SDS011;7842;50.904;6.670;2023-03-21T16:27:53;4.07;;;2.90;;
15480;SDS011;7842;50.904;6.670;2023-03-21T16:30:19;5.07;;;3.33;;
15480;SDS011;7842;50.904;6.670;2023-03-21T16:32:46;3.33;;;2.72;;
15480;SDS011;7842;50.904;6.670;2023-03-21T16:35:13;4.35;;;2.60;;
15480;SDS011;7842;50.904;6.670;2023-03-21T16:37:40;4.80;;;3.00;;
15480;SDS011;7842;50.904;6.670;2023-03-21T16:40:19;6.38;;;4.55;;
15480;SDS011;7842;50.904;6.670;2023-03-21T16:42:55;3.45;;;3.00;;
15480;SDS011;7842;50.904;6.670;2023-03-21T16:45:21;3.95;;;3.22;;
15480;SDS011;7842;50.904;6.670;2023-03-21T16:47:48;4.22;;;3.15;;
15480;SDS011;7842;50.904;6.670;2023-03-21T16:50:20;3.88;;;2.78;;
15480;SDS011;7842;50.904;6.670;2023-03-21T16:52:46;3.83;;;2.08;;